sensor_id;sensor_type;location;lat;lon;timestamp;P1;durP1;ratioP1;P2;durP2;ratioP2
69789;SDS011;57064;52.046;4.800;2023-05-23T00:00:27;46.78;;;20.13;;
69789;SDS011;57064;52.046;4.800;2023-05-23T00:02:53;36.15;;;18.38;;
69789;SDS011;57064;52.046;4.800;2023-05-23T00:05:21;44.38;;;19.23;;
69789;SDS011;57064;52.046;4.800;2023-05-23T00:07:47;38.47;;;16.30;;
69789;SDS011;57064;52.046;4.800;2023-05-23T00:10:13;38.20;;;17.58;;
69789;SDS011;57064;52.046;4.800;2023-05-23T00:12:39;39.50;;;18.33;;
69789;SDS011;57064;52.046;4.800;2023-05-23T00:15:06;33.50;;;16.70;;
69789;SDS011;57064;52.046;4.800;2023-05-23T00:17:33;41.67;;;19.63;;
69789;SDS011;57064;52.046;4.800;2023-05-23T00:20:02;45.45;;;18.67;;
69789;SDS011;57064;52.046;4.800;2023-05-23T00:22:30;40.97;;;17.58;;
69789;SDS011;57064;52.046;4.800;2023-05-23T00:24:56;44.25;;;19.77;;
69789;SDS011;57064;52.046;4.800;2023-05-23T00:27:23;33.30;;;16.25;;
69789;SDS011;57064;52.046;4.800;2023-05-23T00:29:49;40.38;;;17.90;;
69789;SDS011;57064;52.046;4.800;2023-05-23T00:32:15;43.25;;;16.13;;
69789;SDS011;57064;52.046;4.800;2023-05-23T00:34:41;43.65;;;15.75;;
69789;SDS011;57064;52.046;4.800;2023-05-23T00:37:08;43.65;;;19.40;;
69789;SDS011;57064;52.046;4.800;2023-05-23T00:39:35;40.13;;;18.33;;
69789;SDS011;57064;52.046;4.800;2023-05-23T00:42:03;53.53;;;22.00;;
69789;SDS011;57064;52.046;4.800;2023-05-23T00:44:30;45.00;;;19.75;;
69789;SDS011;57064;52.046;4.800;2023-05-23T00:46:56;48.28;;;20.60;;
69789;SDS011;57064;52.046;4.800;2023-05-23T00:49:23;31.80;;;13.80;;
69789;SDS011;57064;52.046;4.800;2023-05-23T00:51:51;38.45;;;15.70;;
69789;SDS011;57064;52.046;4.800;2023-05-23T00:54:19;29.30;;;14.32;;
69789;SDS011;57064;52.046;4.800;2023-05-23T00:56:51;15.93;;;8.93;;
69789;SDS011;57064;52.046;4.800;2023-05-23T00:59:18;26.77;;;11.70;;
69789;SDS011;57064;52.046;4.800;2023-05-23T01:01:45;19.58;;;9.27;;
69789;SDS011;57064;52.046;4.800;2023-05-23T01:04:14;22.10;;;10.02;;
69789;SDS011;57064;52.046;4.800;2023-05-23T01:06:41;20.42;;;9.35;;
69789;SDS011;57064;52.046;4.800;2023-05-23T01:09:14;21.92;;;9.68;;
69789;SDS011;57064;52.046;4.800;2023-05-23T01:14:44;20.58;;;10.23;;
69789;SDS011;57064;52.046;4.800;2023-05-23T01:17:36;20.35;;;8.93;;
69789;SDS011;57064;52.046;4.800;2023-05-23T01:20:16;16.95;;;8.13;;
69789;SDS011;57064;52.046;4.800;2023-05-23T01:28:24;19.55;;;8.10;;
69789;SDS011;57064;52.046;4.800;2023-05-23T01:30:57;24.23;;;9.88;;
69789;SDS011;57064;52.046;4.800;2023-05-23T01:33:25;31.17;;;10.18;;
69789;SDS011;57064;52.046;4.800;2023-05-23T01:35:52;24.25;;;9.93;;
69789;SDS011;57064;52.046;4.800;2023-05-23T01:38:21;24.63;;;9.93;;
69789;SDS011;57064;52.046;4.800;2023-05-23T01:40:47;25.10;;;10.10;;
69789;SDS011;57064;52.046;4.800;2023-05-23T01:43:13;25.00;;;10.70;;
69789;SDS011;57064;52.046;4.800;2023-05-23T01:45:41;25.65;;;12.90;;
69789;SDS011;57064;52.046;4.800;2023-05-23T01:48:07;32.60;;;13.55;;
69789;SDS011;57064;52.046;4.800;2023-05-23T01:50:35;33.42;;;16.10;;
69789;SDS011;57064;52.046;4.800;2023-05-23T01:53:02;36.55;;;16.02;;
69789;SDS011;57064;52.046;4.800;2023-05-23T01:55:29;29.08;;;14.35;;
69789;SDS011;57064;52.046;4.800;2023-05-23T01:57:56;28.60;;;15.70;;
69789;SDS011;57064;52.046;4.800;2023-05-23T02:00:23;34.08;;;15.02;;
69789;SDS011;57064;52.046;4.800;2023-05-23T02:02:49;28.40;;;12.45;;
69789;SDS011;57064;52.046;4.800;2023-05-23T02:05:16;23.90;;;10.07;;
69789;SDS011;57064;52.046;4.800;2023-05-23T02:07:42;19.65;;;8.00;;
69789;SDS011;57064;52.046;4.800;2023-05-23T02:10:08;30.25;;;11.70;;
69789;SDS011;57064;52.046;4.800;2023-05-23T02:12:34;21.88;;;9.07;;
69789;SDS011;57064;52.046;4.800;2023-05-23T02:15:00;29.42;;;10.70;;
69789;SDS011;57064;52.046;4.800;2023-05-23T02:17:26;30.27;;;11.48;;
69789;SDS011;57064;52.046;4.800;2023-05-23T02:19:53;29.58;;;12.50;;
69789;SDS011;57064;52.046;4.800;2023-05-23T02:22:22;47.63;;;14.10;;
69789;SDS011;57064;52.046;4.800;2023-05-23T02:27:17;29.13;;;10.70;;
69789;SDS011;57064;52.046;4.800;2023-05-23T02:29:44;20.77;;;8.43;;
69789;SDS011;57064;52.046;4.800;2023-05-23T02:32:11;21.60;;;9.77;;
69789;SDS011;57064;52.046;4.800;2023-05-23T02:34:37;32.83;;;12.32;;
69789;SDS011;57064;52.046;4.800;2023-05-23T02:37:03;25.73;;;10.00;;
69789;SDS011;57064;52.046;4.800;2023-05-23T02:39:29;33.83;;;11.70;;
69789;SDS011;57064;52.046;4.800;2023-05-23T02:41:55;33.22;;;11.27;;
69789;SDS011;57064;52.046;4.800;2023-05-23T02:44:21;33.75;;;12.88;;
69789;SDS011;57064;52.046;4.800;2023-05-23T02:46:47;33.67;;;12.95;;
69789;SDS011;57064;52.046;4.800;2023-05-23T02:49:13;32.22;;;11.80;;
69789;SDS011;57064;52.046;4.800;2023-05-23T02:51:39;28.10;;;11.68;;
69789;SDS011;57064;52.046;4.800;2023-05-23T02:54:05;30.52;;;10.05;;
69789;SDS011;57064;52.046;4.800;2023-05-23T02:56:31;25.30;;;10.85;;
69789;SDS011;57064;52.046;4.800;2023-05-23T02:59:03;23.73;;;9.80;;
69789;SDS011;57064;52.046;4.800;2023-05-23T03:03:55;28.58;;;9.80;;
69789;SDS011;57064;52.046;4.800;2023-05-23T03:06:21;28.63;;;9.35;;
69789;SDS011;57064;52.046;4.800;2023-05-23T03:08:47;29.35;;;11.05;;
69789;SDS011;57064;52.046;4.800;2023-05-23T03:11:14;25.42;;;10.57;;
69789;SDS011;57064;52.046;4.800;2023-05-23T03:13:40;27.48;;;10.27;;
69789;SDS011;57064;52.046;4.800;2023-05-23T03:16:06;23.38;;;8.90;;
69789;SDS011;57064;52.046;4.800;2023-05-23T03:18:32;25.63;;;9.60;;
69789;SDS011;57064;52.046;4.800;2023-05-23T03:20:58;27.10;;;9.48;;
69789;SDS011;57064;52.046;4.800;2023-05-23T03:23:24;21.27;;;9.57;;
69789;SDS011;57064;52.046;4.800;2023-05-23T03:25:50;23.55;;;7.63;;
69789;SDS011;57064;52.046;4.800;2023-05-23T03:28:16;23.02;;;8.95;;
69789;SDS011;57064;52.046;4.800;2023-05-23T03:30:42;14.65;;;5.20;;
69789;SDS011;57064;52.046;4.800;2023-05-23T03:33:08;12.75;;;4.43;;
69789;SDS011;57064;52.046;4.800;2023-05-23T03:35:35;15.38;;;5.93;;
69789;SDS011;57064;52.046;4.800;2023-05-23T03:38:01;22.52;;;6.63;;
69789;SDS011;57064;52.046;4.800;2023-05-23T03:40:27;14.07;;;4.00;;
69789;SDS011;57064;52.046;4.800;2023-05-23T03:43:05;16.08;;;5.80;;
69789;SDS011;57064;52.046;4.800;2023-05-23T03:45:32;19.52;;;6.13;;
69789;SDS011;57064;52.046;4.800;2023-05-23T03:47:58;14.25;;;5.65;;
69789;SDS011;57064;52.046;4.800;2023-05-23T03:50:25;16.02;;;5.88;;
69789;SDS011;57064;52.046;4.800;2023-05-23T03:52:52;16.75;;;5.75;;
69789;SDS011;57064;52.046;4.800;2023-05-23T03:55:19;17.45;;;5.03;;
69789;SDS011;57064;52.046;4.800;2023-05-23T03:57:50;12.00;;;4.65;;
69789;SDS011;57064;52.046;4.800;2023-05-23T04:00:16;13.65;;;4.65;;
69789;SDS011;57064;52.046;4.800;2023-05-23T04:02:43;14.65;;;4.32;;
69789;SDS011;57064;52.046;4.800;2023-05-23T04:05:10;10.77;;;3.83;;
69789;SDS011;57064;52.046;4.800;2023-05-23T04:07:38;14.98;;;4.82;;
69789;SDS011;57064;52.046;4.800;2023-05-23T04:10:05;13.23;;;4.82;;
69789;SDS011;57064;52.046;4.800;2023-05-23T04:12:33;9.82;;;4.53;;
69789;SDS011;57064;52.046;4.800;2023-05-23T04:14:59;14.05;;;4.85;;
69789;SDS011;57064;52.046;4.800;2023-05-23T04:17:25;16.98;;;5.10;;
69789;SDS011;57064;52.046;4.800;2023-05-23T04:19:53;17.85;;;5.47;;
69789;SDS011;57064;52.046;4.800;2023-05-23T04:22:19;12.80;;;5.05;;
69789;SDS011;57064;52.046;4.800;2023-05-23T04:24:45;15.57;;;4.55;;
69789;SDS011;57064;52.046;4.800;2023-05-23T04:27:11;9.13;;;3.38;;
69789;SDS011;57064;52.046;4.800;2023-05-23T04:29:38;9.73;;;4.53;;
69789;SDS011;57064;52.046;4.800;2023-05-23T04:32:04;16.40;;;3.97;;
69789;SDS011;57064;52.046;4.800;2023-05-23T04:34:31;10.52;;;3.47;;
69789;SDS011;57064;52.046;4.800;2023-05-23T04:36:58;9.80;;;3.60;;
69789;SDS011;57064;52.046;4.800;2023-05-23T04:39:28;14.20;;;3.80;;
69789;SDS011;57064;52.046;4.800;2023-05-23T04:41:55;11.95;;;4.20;;
69789;SDS011;57064;52.046;4.800;2023-05-23T04:44:22;11.38;;;4.63;;
69789;SDS011;57064;52.046;4.800;2023-05-23T04:46:48;14.75;;;4.85;;
69789;SDS011;57064;52.046;4.800;2023-05-23T04:49:14;16.98;;;5.22;;
69789;SDS011;57064;52.046;4.800;2023-05-23T04:51:41;11.38;;;4.53;;
69789;SDS011;57064;52.046;4.800;2023-05-23T04:54:07;19.95;;;7.40;;
69789;SDS011;57064;52.046;4.800;2023-05-23T04:56:33;19.92;;;6.35;;
69789;SDS011;57064;52.046;4.800;2023-05-23T04:59:00;16.67;;;6.55;;
69789;SDS011;57064;52.046;4.800;2023-05-23T05:01:26;16.58;;;6.28;;
69789;SDS011;57064;52.046;4.800;2023-05-23T05:03:52;15.73;;;6.70;;
69789;SDS011;57064;52.046;4.800;2023-05-23T05:06:18;18.25;;;6.10;;
69789;SDS011;57064;52.046;4.800;2023-05-23T05:08:45;12.88;;;5.15;;
69789;SDS011;57064;52.046;4.800;2023-05-23T05:11:11;10.85;;;4.75;;
69789;SDS011;57064;52.046;4.800;2023-05-23T05:13:37;15.48;;;6.13;;
69789;SDS011;57064;52.046;4.800;2023-05-23T05:16:03;12.77;;;5.07;;
69789;SDS011;57064;52.046;4.800;2023-05-23T05:18:30;12.63;;;5.55;;
69789;SDS011;57064;52.046;4.800;2023-05-23T05:20:56;14.55;;;4.93;;
69789;SDS011;57064;52.046;4.800;2023-05-23T05:23:24;13.32;;;4.85;;
69789;SDS011;57064;52.046;4.800;2023-05-23T05:25:53;15.20;;;5.95;;
69789;SDS011;57064;52.046;4.800;2023-05-23T05:28:20;22.92;;;7.95;;
69789;SDS011;57064;52.046;4.800;2023-05-23T05:30:46;13.48;;;5.60;;
69789;SDS011;57064;52.046;4.800;2023-05-23T05:33:18;21.97;;;8.30;;
69789;SDS011;57064;52.046;4.800;2023-05-23T05:35:45;23.23;;;9.07;;
69789;SDS011;57064;52.046;4.800;2023-05-23T05:38:11;24.38;;;9.15;;
69789;SDS011;57064;52.046;4.800;2023-05-23T05:40:38;21.15;;;8.60;;
69789;SDS011;57064;52.046;4.800;2023-05-23T05:43:04;20.42;;;7.60;;
69789;SDS011;57064;52.046;4.800;2023-05-23T05:45:31;21.70;;;8.27;;
69789;SDS011;57064;52.046;4.800;2023-05-23T05:47:57;15.35;;;6.65;;
69789;SDS011;57064;52.046;4.800;2023-05-23T05:50:23;17.83;;;6.13;;
69789;SDS011;57064;52.046;4.800;2023-05-23T05:52:49;11.60;;;4.07;;
69789;SDS011;57064;52.046;4.800;2023-05-23T05:55:17;10.77;;;3.65;;
69789;SDS011;57064;52.046;4.800;2023-05-23T05:57:43;14.65;;;4.22;;
69789;SDS011;57064;52.046;4.800;2023-05-23T06:00:10;16.70;;;5.03;;
69789;SDS011;57064;52.046;4.800;2023-05-23T06:02:42;11.68;;;4.97;;
69789;SDS011;57064;52.046;4.800;2023-05-23T06:05:09;16.15;;;5.20;;
69789;SDS011;57064;52.046;4.800;2023-05-23T06:07:40;12.00;;;4.03;;
69789;SDS011;57064;52.046;4.800;2023-05-23T06:10:07;10.32;;;4.65;;
69789;SDS011;57064;52.046;4.800;2023-05-23T06:12:38;16.60;;;6.10;;
69789;SDS011;57064;52.046;4.800;2023-05-23T06:15:05;17.05;;;6.28;;
69789;SDS011;57064;52.046;4.800;2023-05-23T06:17:32;16.85;;;5.72;;
69789;SDS011;57064;52.046;4.800;2023-05-23T06:19:58;12.88;;;4.95;;
69789;SDS011;57064;52.046;4.800;2023-05-23T06:22:24;13.85;;;4.45;;
69789;SDS011;57064;52.046;4.800;2023-05-23T06:24:50;9.25;;;3.40;;
69789;SDS011;57064;52.046;4.800;2023-05-23T06:27:16;8.90;;;2.95;;
69789;SDS011;57064;52.046;4.800;2023-05-23T06:29:42;9.07;;;3.40;;
69789;SDS011;57064;52.046;4.800;2023-05-23T06:32:08;4.22;;;2.28;;
69789;SDS011;57064;52.046;4.800;2023-05-23T06:34:34;6.45;;;2.80;;
69789;SDS011;57064;52.046;4.800;2023-05-23T06:37:00;4.68;;;2.25;;
69789;SDS011;57064;52.046;4.800;2023-05-23T06:39:27;5.97;;;2.20;;
69789;SDS011;57064;52.046;4.800;2023-05-23T06:41:53;9.50;;;2.22;;
69789;SDS011;57064;52.046;4.800;2023-05-23T06:44:20;6.18;;;2.97;;
69789;SDS011;57064;52.046;4.800;2023-05-23T06:46:46;9.15;;;2.42;;
69789;SDS011;57064;52.046;4.800;2023-05-23T06:49:13;5.25;;;1.92;;
69789;SDS011;57064;52.046;4.800;2023-05-23T06:51:39;8.88;;;2.25;;
69789;SDS011;57064;52.046;4.800;2023-05-23T06:54:05;14.90;;;4.15;;
69789;SDS011;57064;52.046;4.800;2023-05-23T06:56:32;5.53;;;2.03;;
69789;SDS011;57064;52.046;4.800;2023-05-23T06:58:58;5.25;;;1.38;;
69789;SDS011;57064;52.046;4.800;2023-05-23T07:01:24;5.53;;;1.42;;
69789;SDS011;57064;52.046;4.800;2023-05-23T07:03:50;3.60;;;1.40;;
69789;SDS011;57064;52.046;4.800;2023-05-23T07:06:16;6.13;;;1.45;;
69789;SDS011;57064;52.046;4.800;2023-05-23T07:08:44;5.88;;;1.42;;
69789;SDS011;57064;52.046;4.800;2023-05-23T07:11:10;5.40;;;1.80;;
69789;SDS011;57064;52.046;4.800;2023-05-23T07:13:36;7.43;;;2.55;;
69789;SDS011;57064;52.046;4.800;2023-05-23T07:16:03;9.35;;;1.67;;
69789;SDS011;57064;52.046;4.800;2023-05-23T07:18:29;6.32;;;1.85;;
69789;SDS011;57064;52.046;4.800;2023-05-23T07:20:55;8.55;;;1.80;;
69789;SDS011;57064;52.046;4.800;2023-05-23T07:23:21;10.00;;;2.25;;
69789;SDS011;57064;52.046;4.800;2023-05-23T07:25:51;9.60;;;2.60;;
69789;SDS011;57064;52.046;4.800;2023-05-23T07:28:18;11.35;;;1.95;;
69789;SDS011;57064;52.046;4.800;2023-05-23T07:30:44;11.35;;;2.78;;
69789;SDS011;57064;52.046;4.800;2023-05-23T07:33:10;7.35;;;2.28;;
69789;SDS011;57064;52.046;4.800;2023-05-23T07:35:36;8.25;;;1.92;;
69789;SDS011;57064;52.046;4.800;2023-05-23T07:38:02;11.40;;;2.28;;
69789;SDS011;57064;52.046;4.800;2023-05-23T07:40:29;9.25;;;2.72;;
69789;SDS011;57064;52.046;4.800;2023-05-23T07:42:55;10.00;;;2.10;;
69789;SDS011;57064;52.046;4.800;2023-05-23T07:45:21;19.52;;;3.38;;
69789;SDS011;57064;52.046;4.800;2023-05-23T07:47:47;8.57;;;2.22;;
69789;SDS011;57064;52.046;4.800;2023-05-23T07:50:15;7.25;;;1.90;;
69789;SDS011;57064;52.046;4.800;2023-05-23T07:52:42;12.50;;;2.28;;
69789;SDS011;57064;52.046;4.800;2023-05-23T07:55:08;9.40;;;2.35;;
69789;SDS011;57064;52.046;4.800;2023-05-23T07:57:34;6.90;;;2.05;;
69789;SDS011;57064;52.046;4.800;2023-05-23T08:00:00;9.85;;;1.50;;
69789;SDS011;57064;52.046;4.800;2023-05-23T08:02:26;12.98;;;3.10;;
69789;SDS011;57064;52.046;4.800;2023-05-23T08:04:53;9.35;;;2.50;;
69789;SDS011;57064;52.046;4.800;2023-05-23T08:07:20;8.32;;;2.05;;
69789;SDS011;57064;52.046;4.800;2023-05-23T08:09:46;6.85;;;2.53;;
69789;SDS011;57064;52.046;4.800;2023-05-23T08:12:12;10.20;;;3.10;;
69789;SDS011;57064;52.046;4.800;2023-05-23T08:14:39;8.10;;;1.83;;
69789;SDS011;57064;52.046;4.800;2023-05-23T08:17:05;10.50;;;2.45;;
69789;SDS011;57064;52.046;4.800;2023-05-23T08:19:31;6.70;;;1.88;;
69789;SDS011;57064;52.046;4.800;2023-05-23T08:21:57;6.65;;;1.85;;
69789;SDS011;57064;52.046;4.800;2023-05-23T08:24:23;10.23;;;2.10;;
69789;SDS011;57064;52.046;4.800;2023-05-23T08:26:49;9.77;;;1.92;;
69789;SDS011;57064;52.046;4.800;2023-05-23T08:29:15;10.32;;;1.95;;
69789;SDS011;57064;52.046;4.800;2023-05-23T08:31:42;10.65;;;2.05;;
69789;SDS011;57064;52.046;4.800;2023-05-23T08:34:08;10.43;;;3.22;;
69789;SDS011;57064;52.046;4.800;2023-05-23T08:36:34;7.22;;;2.13;;
69789;SDS011;57064;52.046;4.800;2023-05-23T08:39:01;10.27;;;2.22;;
69789;SDS011;57064;52.046;4.800;2023-05-23T08:41:28;5.10;;;1.40;;
69789;SDS011;57064;52.046;4.800;2023-05-23T08:43:55;8.77;;;1.95;;
69789;SDS011;57064;52.046;4.800;2023-05-23T08:46:22;13.95;;;3.25;;
69789;SDS011;57064;52.046;4.800;2023-05-23T08:48:51;10.10;;;2.35;;
69789;SDS011;57064;52.046;4.800;2023-05-23T08:51:20;6.53;;;2.00;;
69789;SDS011;57064;52.046;4.800;2023-05-23T08:53:48;6.30;;;2.08;;
69789;SDS011;57064;52.046;4.800;2023-05-23T08:56:15;12.65;;;2.63;;
69789;SDS011;57064;52.046;4.800;2023-05-23T08:58:41;12.00;;;2.67;;
69789;SDS011;57064;52.046;4.800;2023-05-23T09:01:08;11.13;;;3.47;;
69789;SDS011;57064;52.046;4.800;2023-05-23T09:03:35;9.13;;;1.75;;
69789;SDS011;57064;52.046;4.800;2023-05-23T09:06:02;9.68;;;2.47;;
69789;SDS011;57064;52.046;4.800;2023-05-23T09:08:32;10.23;;;3.10;;
69789;SDS011;57064;52.046;4.800;2023-05-23T09:10:58;12.75;;;2.85;;
69789;SDS011;57064;52.046;4.800;2023-05-23T09:13:27;8.43;;;2.03;;
69789;SDS011;57064;52.046;4.800;2023-05-23T09:18:37;9.80;;;1.95;;
69789;SDS011;57064;52.046;4.800;2023-05-23T09:21:06;11.30;;;2.53;;
69789;SDS011;57064;52.046;4.800;2023-05-23T09:23:37;11.23;;;2.03;;
69789;SDS011;57064;52.046;4.800;2023-05-23T09:26:05;8.50;;;2.55;;
69789;SDS011;57064;52.046;4.800;2023-05-23T09:28:32;11.82;;;2.28;;
69789;SDS011;57064;52.046;4.800;2023-05-23T09:30:59;10.02;;;2.30;;
69789;SDS011;57064;52.046;4.800;2023-05-23T09:33:41;9.27;;;1.95;;
69789;SDS011;57064;52.046;4.800;2023-05-23T09:36:14;10.10;;;1.95;;
69789;SDS011;57064;52.046;4.800;2023-05-23T09:38:42;12.43;;;2.30;;
69789;SDS011;57064;52.046;4.800;2023-05-23T09:41:10;9.10;;;2.70;;
69789;SDS011;57064;52.046;4.800;2023-05-23T09:43:37;8.85;;;3.22;;
69789;SDS011;57064;52.046;4.800;2023-05-23T09:46:08;7.70;;;2.25;;
69789;SDS011;57064;52.046;4.800;2023-05-23T09:48:35;12.23;;;3.28;;
69789;SDS011;57064;52.046;4.800;2023-05-23T09:51:08;9.35;;;2.63;;
69789;SDS011;57064;52.046;4.800;2023-05-23T09:53:35;5.60;;;2.20;;
69789;SDS011;57064;52.046;4.800;2023-05-23T09:56:01;11.02;;;2.58;;
69789;SDS011;57064;52.046;4.800;2023-05-23T09:58:28;9.35;;;2.50;;
69789;SDS011;57064;52.046;4.800;2023-05-23T10:00:55;8.10;;;2.20;;
69789;SDS011;57064;52.046;4.800;2023-05-23T10:03:55;7.90;;;2.10;;
69789;SDS011;57064;52.046;4.800;2023-05-23T10:08:56;6.65;;;1.67;;
69789;SDS011;57064;52.046;4.800;2023-05-23T10:13:57;6.03;;;2.03;;
69789;SDS011;57064;52.046;4.800;2023-05-23T10:19:13;11.32;;;2.50;;
69789;SDS011;57064;52.046;4.800;2023-05-23T10:22:05;10.48;;;2.13;;
69789;SDS011;57064;52.046;4.800;2023-05-23T10:24:34;12.40;;;2.67;;
69789;SDS011;57064;52.046;4.800;2023-05-23T10:27:01;11.65;;;3.28;;
69789;SDS011;57064;52.046;4.800;2023-05-23T10:29:28;5.35;;;2.08;;
69789;SDS011;57064;52.046;4.800;2023-05-23T10:31:55;8.10;;;2.47;;
69789;SDS011;57064;52.046;4.800;2023-05-23T10:34:31;4.68;;;1.63;;
69789;SDS011;57064;52.046;4.800;2023-05-23T10:37:36;10.02;;;2.10;;
69789;SDS011;57064;52.046;4.800;2023-05-23T10:45:46;15.25;;;2.22;;
69789;SDS011;57064;52.046;4.800;2023-05-23T10:51:01;8.93;;;2.65;;
69789;SDS011;57064;52.046;4.800;2023-05-23T10:53:34;8.30;;;2.28;;
69789;SDS011;57064;52.046;4.800;2023-05-23T10:56:05;10.77;;;2.78;;
69789;SDS011;57064;52.046;4.800;2023-05-23T10:58:33;9.75;;;1.98;;
69789;SDS011;57064;52.046;4.800;2023-05-23T11:01:05;9.75;;;2.20;;
69789;SDS011;57064;52.046;4.800;2023-05-23T11:03:34;10.68;;;2.50;;
69789;SDS011;57064;52.046;4.800;2023-05-23T11:11:52;9.45;;;2.03;;
69789;SDS011;57064;52.046;4.800;2023-05-23T11:14:31;10.23;;;2.55;;
69789;SDS011;57064;52.046;4.800;2023-05-23T11:17:14;15.23;;;3.25;;
69789;SDS011;57064;52.046;4.800;2023-05-23T11:19:57;7.85;;;2.15;;
69789;SDS011;57064;52.046;4.800;2023-05-23T11:22:30;8.00;;;2.08;;
69789;SDS011;57064;52.046;4.800;2023-05-23T11:24:57;12.55;;;2.72;;
69789;SDS011;57064;52.046;4.800;2023-05-23T11:27:30;13.13;;;2.25;;
69789;SDS011;57064;52.046;4.800;2023-05-23T11:30:17;14.02;;;3.47;;
69789;SDS011;57064;52.046;4.800;2023-05-23T11:32:50;10.32;;;3.00;;
69789;SDS011;57064;52.046;4.800;2023-05-23T11:35:17;11.40;;;2.47;;
69789;SDS011;57064;52.046;4.800;2023-05-23T11:37:45;10.43;;;2.10;;
69789;SDS011;57064;52.046;4.800;2023-05-23T11:40:24;11.88;;;2.78;;
69789;SDS011;57064;52.046;4.800;2023-05-23T11:42:51;10.68;;;2.33;;
69789;SDS011;57064;52.046;4.800;2023-05-23T11:45:18;9.15;;;2.75;;
69789;SDS011;57064;52.046;4.800;2023-05-23T11:47:44;7.30;;;1.80;;
69789;SDS011;57064;52.046;4.800;2023-05-23T11:50:11;11.70;;;2.50;;
69789;SDS011;57064;52.046;4.800;2023-05-23T11:52:37;4.55;;;1.15;;
69789;SDS011;57064;52.046;4.800;2023-05-23T11:55:03;9.95;;;2.40;;
69789;SDS011;57064;52.046;4.800;2023-05-23T11:57:30;6.68;;;1.70;;
69789;SDS011;57064;52.046;4.800;2023-05-23T11:59:57;13.55;;;2.10;;
69789;SDS011;57064;52.046;4.800;2023-05-23T12:02:23;11.07;;;2.40;;
69789;SDS011;57064;52.046;4.800;2023-05-23T12:04:52;11.30;;;2.17;;
69789;SDS011;57064;52.046;4.800;2023-05-23T12:07:18;12.98;;;2.22;;
69789;SDS011;57064;52.046;4.800;2023-05-23T12:09:45;10.95;;;2.88;;
69789;SDS011;57064;52.046;4.800;2023-05-23T12:12:11;8.50;;;2.10;;
69789;SDS011;57064;52.046;4.800;2023-05-23T12:14:38;7.88;;;2.50;;
69789;SDS011;57064;52.046;4.800;2023-05-23T12:17:11;9.32;;;2.25;;
69789;SDS011;57064;52.046;4.800;2023-05-23T12:19:38;7.38;;;1.80;;
69789;SDS011;57064;52.046;4.800;2023-05-23T12:22:05;10.38;;;2.03;;
69789;SDS011;57064;52.046;4.800;2023-05-23T12:24:31;7.97;;;2.00;;
69789;SDS011;57064;52.046;4.800;2023-05-23T12:26:58;6.53;;;2.05;;
69789;SDS011;57064;52.046;4.800;2023-05-23T12:29:32;12.68;;;2.78;;
69789;SDS011;57064;52.046;4.800;2023-05-23T12:32:03;14.45;;;3.60;;
69789;SDS011;57064;52.046;4.800;2023-05-23T12:34:30;7.80;;;2.22;;
69789;SDS011;57064;52.046;4.800;2023-05-23T12:36:57;9.15;;;2.33;;
69789;SDS011;57064;52.046;4.800;2023-05-23T12:39:25;7.43;;;1.90;;
69789;SDS011;57064;52.046;4.800;2023-05-23T12:41:53;12.65;;;2.58;;
69789;SDS011;57064;52.046;4.800;2023-05-23T12:44:22;7.35;;;1.88;;
69789;SDS011;57064;52.046;4.800;2023-05-23T12:46:54;10.82;;;2.33;;
69789;SDS011;57064;52.046;4.800;2023-05-23T12:49:20;16.40;;;2.47;;
69789;SDS011;57064;52.046;4.800;2023-05-23T12:51:46;8.73;;;1.95;;
69789;SDS011;57064;52.046;4.800;2023-05-23T12:54:12;8.75;;;1.88;;
69789;SDS011;57064;52.046;4.800;2023-05-23T12:56:38;11.88;;;1.92;;
69789;SDS011;57064;52.046;4.800;2023-05-23T12:59:04;13.65;;;1.85;;
69789;SDS011;57064;52.046;4.800;2023-05-23T13:01:31;9.13;;;2.28;;
69789;SDS011;57064;52.046;4.800;2023-05-23T13:03:59;9.10;;;2.38;;
69789;SDS011;57064;52.046;4.800;2023-05-23T13:06:26;9.20;;;2.50;;
69789;SDS011;57064;52.046;4.800;2023-05-23T13:08:52;9.73;;;2.13;;
69789;SDS011;57064;52.046;4.800;2023-05-23T13:11:21;12.73;;;2.25;;
69789;SDS011;57064;52.046;4.800;2023-05-23T13:13:48;11.75;;;2.45;;
69789;SDS011;57064;52.046;4.800;2023-05-23T13:16:15;10.27;;;2.50;;
69789;SDS011;57064;52.046;4.800;2023-05-23T13:18:41;9.48;;;2.40;;
69789;SDS011;57064;52.046;4.800;2023-05-23T13:21:07;10.65;;;2.53;;
69789;SDS011;57064;52.046;4.800;2023-05-23T13:23:33;11.25;;;1.92;;
69789;SDS011;57064;52.046;4.800;2023-05-23T13:26:01;13.35;;;2.17;;
69789;SDS011;57064;52.046;4.800;2023-05-23T13:28:27;10.27;;;2.38;;
69789;SDS011;57064;52.046;4.800;2023-05-23T13:30:53;14.07;;;2.13;;
69789;SDS011;57064;52.046;4.800;2023-05-23T13:33:20;12.90;;;2.72;;
69789;SDS011;57064;52.046;4.800;2023-05-23T13:35:47;6.93;;;1.85;;
69789;SDS011;57064;52.046;4.800;2023-05-23T13:38:14;7.38;;;1.70;;
69789;SDS011;57064;52.046;4.800;2023-05-23T13:40:44;10.23;;;2.22;;
69789;SDS011;57064;52.046;4.800;2023-05-23T13:43:10;15.80;;;2.72;;
69789;SDS011;57064;52.046;4.800;2023-05-23T13:45:37;8.50;;;2.50;;
69789;SDS011;57064;52.046;4.800;2023-05-23T13:48:05;7.45;;;2.92;;
69789;SDS011;57064;52.046;4.800;2023-05-23T13:50:32;14.35;;;3.13;;
69789;SDS011;57064;52.046;4.800;2023-05-23T13:53:00;13.00;;;2.63;;
69789;SDS011;57064;52.046;4.800;2023-05-23T13:55:26;11.98;;;2.70;;
69789;SDS011;57064;52.046;4.800;2023-05-23T13:57:52;9.60;;;2.15;;
69789;SDS011;57064;52.046;4.800;2023-05-23T14:00:18;12.65;;;2.28;;
69789;SDS011;57064;52.046;4.800;2023-05-23T14:02:45;8.75;;;2.30;;
69789;SDS011;57064;52.046;4.800;2023-05-23T14:05:11;6.28;;;2.03;;
69789;SDS011;57064;52.046;4.800;2023-05-23T14:07:37;11.15;;;1.95;;
69789;SDS011;57064;52.046;4.800;2023-05-23T14:10:03;7.47;;;1.52;;
69789;SDS011;57064;52.046;4.800;2023-05-23T14:12:31;7.78;;;1.90;;
69789;SDS011;57064;52.046;4.800;2023-05-23T14:14:57;8.30;;;2.22;;
69789;SDS011;57064;52.046;4.800;2023-05-23T14:17:23;9.23;;;1.88;;
69789;SDS011;57064;52.046;4.800;2023-05-23T14:19:49;9.40;;;2.50;;
69789;SDS011;57064;52.046;4.800;2023-05-23T14:22:15;7.13;;;2.45;;
69789;SDS011;57064;52.046;4.800;2023-05-23T14:24:41;11.85;;;2.78;;
69789;SDS011;57064;52.046;4.800;2023-05-23T14:27:07;8.95;;;2.13;;
69789;SDS011;57064;52.046;4.800;2023-05-23T14:29:33;8.07;;;1.23;;
69789;SDS011;57064;52.046;4.800;2023-05-23T14:31:59;13.98;;;2.50;;
69789;SDS011;57064;52.046;4.800;2023-05-23T14:34:27;8.75;;;1.90;;
69789;SDS011;57064;52.046;4.800;2023-05-23T14:36:54;9.25;;;1.65;;
69789;SDS011;57064;52.046;4.800;2023-05-23T14:39:20;6.60;;;1.70;;
69789;SDS011;57064;52.046;4.800;2023-05-23T14:41:46;12.93;;;2.35;;
69789;SDS011;57064;52.046;4.800;2023-05-23T14:44:12;13.88;;;3.20;;
69789;SDS011;57064;52.046;4.800;2023-05-23T14:46:38;7.57;;;1.48;;
69789;SDS011;57064;52.046;4.800;2023-05-23T14:49:05;10.10;;;2.35;;
69789;SDS011;57064;52.046;4.800;2023-05-23T14:51:31;9.25;;;1.73;;
69789;SDS011;57064;52.046;4.800;2023-05-23T14:53:57;9.40;;;2.15;;
69789;SDS011;57064;52.046;4.800;2023-05-23T14:56:23;6.47;;;1.80;;
69789;SDS011;57064;52.046;4.800;2023-05-23T14:58:51;9.00;;;2.00;;
69789;SDS011;57064;52.046;4.800;2023-05-23T15:01:17;9.52;;;2.20;;
69789;SDS011;57064;52.046;4.800;2023-05-23T15:03:43;12.25;;;2.67;;
69789;SDS011;57064;52.046;4.800;2023-05-23T15:06:09;13.63;;;2.20;;
69789;SDS011;57064;52.046;4.800;2023-05-23T15:08:35;8.13;;;2.50;;
69789;SDS011;57064;52.046;4.800;2023-05-23T15:11:01;15.85;;;2.65;;
69789;SDS011;57064;52.046;4.800;2023-05-23T15:13:27;8.95;;;1.95;;
69789;SDS011;57064;52.046;4.800;2023-05-23T15:15:53;8.80;;;1.80;;